sensor_id;sensor_type;location;lat;lon;timestamp;P1;durP1;ratioP1;P2;durP2;ratioP2
58366;SDS011;57745;42.524;12.052;2023-05-21T00:00:19;3.13;;;1.90;;
58366;SDS011;57745;42.524;12.052;2023-05-21T00:02:45;3.67;;;1.73;;
58366;SDS011;57745;42.524;12.052;2023-05-21T00:05:16;3.55;;;1.70;;
58366;SDS011;57745;42.524;12.052;2023-05-21T00:07:42;2.28;;;1.45;;
58366;SDS011;57745;42.524;12.052;2023-05-21T00:10:08;4.25;;;1.60;;
58366;SDS011;57745;42.524;12.052;2023-05-21T00:12:34;2.53;;;1.50;;
58366;SDS011;57745;42.524;12.052;2023-05-21T00:14:59;3.60;;;1.85;;
58366;SDS011;57745;42.524;12.052;2023-05-21T00:17:25;5.22;;;1.70;;
58366;SDS011;57745;42.524;12.052;2023-05-21T00:19:52;3.15;;;1.60;;
58366;SDS011;57745;42.524;12.052;2023-05-21T00:22:18;3.03;;;1.40;;
58366;SDS011;57745;42.524;12.052;2023-05-21T00:24:44;2.63;;;1.40;;
58366;SDS011;57745;42.524;12.052;2023-05-21T00:27:10;3.60;;;1.80;;
58366;SDS011;57745;42.524;12.052;2023-05-21T00:29:37;2.50;;;1.60;;
58366;SDS011;57745;42.524;12.052;2023-05-21T00:32:02;3.22;;;1.50;;
58366;SDS011;57745;42.524;12.052;2023-05-21T00:34:28;5.15;;;1.50;;
58366;SDS011;57745;42.524;12.052;2023-05-21T00:36:53;4.18;;;1.80;;
58366;SDS011;57745;42.524;12.052;2023-05-21T00:39:19;2.65;;;1.92;;
58366;SDS011;57745;42.524;12.052;2023-05-21T00:41:45;4.25;;;1.95;;
58366;SDS011;57745;42.524;12.052;2023-05-21T00:44:12;4.15;;;2.10;;
58366;SDS011;57745;42.524;12.052;2023-05-21T00:46:39;6.50;;;2.05;;
58366;SDS011;57745;42.524;12.052;2023-05-21T00:49:05;3.88;;;2.08;;
58366;SDS011;57745;42.524;12.052;2023-05-21T00:51:30;3.33;;;1.92;;
58366;SDS011;57745;42.524;12.052;2023-05-21T00:53:56;4.40;;;2.20;;
58366;SDS011;57745;42.524;12.052;2023-05-21T00:56:23;3.50;;;2.20;;
58366;SDS011;57745;42.524;12.052;2023-05-21T00:58:51;3.33;;;2.13;;
58366;SDS011;57745;42.524;12.052;2023-05-21T01:01:17;4.25;;;2.25;;
58366;SDS011;57745;42.524;12.052;2023-05-21T01:03:43;6.13;;;2.20;;
58366;SDS011;57745;42.524;12.052;2023-05-21T01:06:09;4.88;;;1.98;;
58366;SDS011;57745;42.524;12.052;2023-05-21T01:08:35;4.28;;;2.25;;
58366;SDS011;57745;42.524;12.052;2023-05-21T01:11:03;3.92;;;2.45;;
58366;SDS011;57745;42.524;12.052;2023-05-21T01:13:29;9.05;;;2.70;;
58366;SDS011;57745;42.524;12.052;2023-05-21T01:15:55;3.40;;;1.90;;
58366;SDS011;57745;42.524;12.052;2023-05-21T01:18:22;3.80;;;2.47;;
58366;SDS011;57745;42.524;12.052;2023-05-21T01:20:48;5.63;;;2.53;;
58366;SDS011;57745;42.524;12.052;2023-05-21T01:23:16;4.18;;;2.22;;
58366;SDS011;57745;42.524;12.052;2023-05-21T01:25:43;4.40;;;2.40;;
58366;SDS011;57745;42.524;12.052;2023-05-21T01:28:09;2.58;;;2.05;;
58366;SDS011;57745;42.524;12.052;2023-05-21T01:30:35;4.50;;;2.40;;
58366;SDS011;57745;42.524;12.052;2023-05-21T01:33:03;4.70;;;2.35;;
58366;SDS011;57745;42.524;12.052;2023-05-21T01:38:21;5.35;;;2.58;;
58366;SDS011;57745;42.524;12.052;2023-05-21T01:43:22;3.85;;;2.55;;
58366;SDS011;57745;42.524;12.052;2023-05-21T01:45:51;3.42;;;2.75;;
58366;SDS011;57745;42.524;12.052;2023-05-21T01:48:18;3.22;;;2.35;;
58366;SDS011;57745;42.524;12.052;2023-05-21T01:50:44;3.70;;;2.50;;
58366;SDS011;57745;42.524;12.052;2023-05-21T01:53:11;3.95;;;2.60;;
58366;SDS011;57745;42.524;12.052;2023-05-21T01:55:36;2.85;;;2.38;;
58366;SDS011;57745;42.524;12.052;2023-05-21T01:58:05;3.42;;;2.60;;
58366;SDS011;57745;42.524;12.052;2023-05-21T02:00:31;5.15;;;2.70;;
58366;SDS011;57745;42.524;12.052;2023-05-21T02:02:58;3.25;;;2.60;;
58366;SDS011;57745;42.524;12.052;2023-05-21T02:05:24;3.47;;;2.50;;
58366;SDS011;57745;42.524;12.052;2023-05-21T02:07:50;2.95;;;2.40;;
58366;SDS011;57745;42.524;12.052;2023-05-21T02:10:16;4.03;;;2.45;;
58366;SDS011;57745;42.524;12.052;2023-05-21T02:12:42;4.38;;;2.63;;
58366;SDS011;57745;42.524;12.052;2023-05-21T02:15:08;5.70;;;2.22;;
58366;SDS011;57745;42.524;12.052;2023-05-21T02:17:33;5.15;;;3.08;;
58366;SDS011;57745;42.524;12.052;2023-05-21T02:19:59;3.67;;;2.30;;
58366;SDS011;57745;42.524;12.052;2023-05-21T02:22:38;9.32;;;2.92;;
58366;SDS011;57745;42.524;12.052;2023-05-21T02:25:08;3.53;;;2.40;;
58366;SDS011;57745;42.524;12.052;2023-05-21T02:27:34;6.45;;;2.90;;
58366;SDS011;57745;42.524;12.052;2023-05-21T02:30:05;4.03;;;2.63;;
58366;SDS011;57745;42.524;12.052;2023-05-21T02:32:32;5.03;;;2.55;;
58366;SDS011;57745;42.524;12.052;2023-05-21T02:34:59;5.75;;;2.78;;
58366;SDS011;57745;42.524;12.052;2023-05-21T02:37:25;3.83;;;2.70;;
58366;SDS011;57745;42.524;12.052;2023-05-21T02:39:57;3.60;;;2.28;;
58366;SDS011;57745;42.524;12.052;2023-05-21T02:42:23;4.07;;;2.70;;
58366;SDS011;57745;42.524;12.052;2023-05-21T02:44:49;3.65;;;3.00;;
58366;SDS011;57745;42.524;12.052;2023-05-21T02:47:15;3.78;;;2.28;;
58366;SDS011;57745;42.524;12.052;2023-05-21T02:49:41;4.15;;;2.80;;
58366;SDS011;57745;42.524;12.052;2023-05-21T02:52:07;3.95;;;3.00;;
58366;SDS011;57745;42.524;12.052;2023-05-21T02:54:32;5.43;;;2.75;;
58366;SDS011;57745;42.524;12.052;2023-05-21T02:56:58;4.85;;;2.75;;
58366;SDS011;57745;42.524;12.052;2023-05-21T02:59:23;3.50;;;2.67;;
58366;SDS011;57745;42.524;12.052;2023-05-21T03:01:49;4.00;;;2.72;;
58366;SDS011;57745;42.524;12.052;2023-05-21T03:04:14;3.30;;;2.30;;
58366;SDS011;57745;42.524;12.052;2023-05-21T03:06:41;3.83;;;2.55;;
58366;SDS011;57745;42.524;12.052;2023-05-21T03:09:07;5.55;;;3.03;;
58366;SDS011;57745;42.524;12.052;2023-05-21T03:11:34;5.20;;;2.80;;
58366;SDS011;57745;42.524;12.052;2023-05-21T03:13:59;5.78;;;2.95;;
58366;SDS011;57745;42.524;12.052;2023-05-21T03:16:25;8.10;;;3.35;;
58366;SDS011;57745;42.524;12.052;2023-05-21T03:18:50;4.10;;;2.72;;
58366;SDS011;57745;42.524;12.052;2023-05-21T03:21:15;4.07;;;2.95;;
58366;SDS011;57745;42.524;12.052;2023-05-21T03:23:41;3.15;;;2.63;;
58366;SDS011;57745;42.524;12.052;2023-05-21T03:26:07;5.30;;;2.97;;
58366;SDS011;57745;42.524;12.052;2023-05-21T03:28:33;4.25;;;2.72;;
58366;SDS011;57745;42.524;12.052;2023-05-21T03:30:59;3.90;;;2.65;;
58366;SDS011;57745;42.524;12.052;2023-05-21T03:33:25;3.97;;;2.80;;
58366;SDS011;57745;42.524;12.052;2023-05-21T03:35:50;3.97;;;2.78;;
58366;SDS011;57745;42.524;12.052;2023-05-21T03:38:16;4.03;;;2.83;;
58366;SDS011;57745;42.524;12.052;2023-05-21T03:40:41;4.65;;;2.72;;
58366;SDS011;57745;42.524;12.052;2023-05-21T03:43:07;3.88;;;2.90;;
58366;SDS011;57745;42.524;12.052;2023-05-21T03:45:32;4.68;;;2.72;;
58366;SDS011;57745;42.524;12.052;2023-05-21T03:47:58;3.15;;;2.65;;
58366;SDS011;57745;42.524;12.052;2023-05-21T03:50:23;3.30;;;2.80;;
58366;SDS011;57745;42.524;12.052;2023-05-21T03:52:48;4.18;;;2.67;;
58366;SDS011;57745;42.524;12.052;2023-05-21T03:55:14;3.97;;;2.60;;
58366;SDS011;57745;42.524;12.052;2023-05-21T03:57:40;4.63;;;2.70;;
58366;SDS011;57745;42.524;12.052;2023-05-21T04:00:05;4.70;;;2.70;;
58366;SDS011;57745;42.524;12.052;2023-05-21T04:02:33;3.60;;;2.85;;
58366;SDS011;57745;42.524;12.052;2023-05-21T04:04:58;5.00;;;2.72;;
58366;SDS011;57745;42.524;12.052;2023-05-21T04:07:24;3.67;;;2.67;;
58366;SDS011;57745;42.524;12.052;2023-05-21T04:09:51;4.15;;;3.10;;
58366;SDS011;57745;42.524;12.052;2023-05-21T04:12:16;4.28;;;2.88;;
58366;SDS011;57745;42.524;12.052;2023-05-21T04:14:44;7.82;;;2.90;;
58366;SDS011;57745;42.524;12.052;2023-05-21T04:17:10;3.40;;;2.70;;
58366;SDS011;57745;42.524;12.052;2023-05-21T04:19:36;4.10;;;2.38;;
58366;SDS011;57745;42.524;12.052;2023-05-21T04:22:02;7.18;;;2.75;;
58366;SDS011;57745;42.524;12.052;2023-05-21T04:24:28;4.32;;;2.60;;
58366;SDS011;57745;42.524;12.052;2023-05-21T04:26:54;3.38;;;2.33;;
58366;SDS011;57745;42.524;12.052;2023-05-21T04:29:20;2.90;;;2.42;;
58366;SDS011;57745;42.524;12.052;2023-05-21T04:31:48;4.93;;;2.63;;
58366;SDS011;57745;42.524;12.052;2023-05-21T04:34:14;4.28;;;2.35;;
58366;SDS011;57745;42.524;12.052;2023-05-21T04:36:43;4.65;;;2.33;;
58366;SDS011;57745;42.524;12.052;2023-05-21T04:39:11;4.43;;;2.80;;
58366;SDS011;57745;42.524;12.052;2023-05-21T04:41:37;3.70;;;2.42;;
58366;SDS011;57745;42.524;12.052;2023-05-21T04:44:06;4.90;;;2.67;;
58366;SDS011;57745;42.524;12.052;2023-05-21T04:46:32;4.47;;;2.15;;
58366;SDS011;57745;42.524;12.052;2023-05-21T04:48:58;6.22;;;2.50;;
58366;SDS011;57745;42.524;12.052;2023-05-21T04:51:26;3.13;;;2.47;;
58366;SDS011;57745;42.524;12.052;2023-05-21T04:53:52;3.13;;;2.50;;
58366;SDS011;57745;42.524;12.052;2023-05-21T04:56:18;2.25;;;1.90;;
58366;SDS011;57745;42.524;12.052;2023-05-21T04:58:44;4.07;;;2.25;;
58366;SDS011;57745;42.524;12.052;2023-05-21T05:01:11;4.63;;;2.40;;
58366;SDS011;57745;42.524;12.052;2023-05-21T05:03:37;5.05;;;2.90;;
58366;SDS011;57745;42.524;12.052;2023-05-21T05:06:03;3.65;;;2.15;;
58366;SDS011;57745;42.524;12.052;2023-05-21T05:08:29;3.80;;;2.63;;
58366;SDS011;57745;42.524;12.052;2023-05-21T05:10:54;3.58;;;2.33;;
58366;SDS011;57745;42.524;12.052;2023-05-21T05:13:20;4.65;;;2.78;;
58366;SDS011;57745;42.524;12.052;2023-05-21T05:15:45;7.95;;;2.80;;
58366;SDS011;57745;42.524;12.052;2023-05-21T05:18:11;4.22;;;2.40;;
58366;SDS011;57745;42.524;12.052;2023-05-21T05:20:37;4.20;;;2.60;;
58366;SDS011;57745;42.524;12.052;2023-05-21T05:23:02;3.60;;;2.15;;
58366;SDS011;57745;42.524;12.052;2023-05-21T05:25:28;2.90;;;2.05;;
58366;SDS011;57745;42.524;12.052;2023-05-21T05:27:53;4.20;;;2.20;;
58366;SDS011;57745;42.524;12.052;2023-05-21T05:30:19;5.05;;;2.30;;
58366;SDS011;57745;42.524;12.052;2023-05-21T05:32:44;4.13;;;2.13;;
58366;SDS011;57745;42.524;12.052;2023-05-21T05:35:10;2.88;;;2.30;;
58366;SDS011;57745;42.524;12.052;2023-05-21T05:37:36;3.97;;;2.63;;
58366;SDS011;57745;42.524;12.052;2023-05-21T05:40:01;4.85;;;2.33;;
58366;SDS011;57745;42.524;12.052;2023-05-21T05:42:28;5.47;;;2.20;;
58366;SDS011;57745;42.524;12.052;2023-05-21T05:44:53;6.18;;;2.33;;
58366;SDS011;57745;42.524;12.052;2023-05-21T05:47:20;5.30;;;2.60;;
58366;SDS011;57745;42.524;12.052;2023-05-21T05:49:45;5.53;;;2.35;;
58366;SDS011;57745;42.524;12.052;2023-05-21T05:52:11;3.35;;;2.30;;
58366;SDS011;57745;42.524;12.052;2023-05-21T05:54:36;4.63;;;2.58;;
58366;SDS011;57745;42.524;12.052;2023-05-21T05:57:02;4.55;;;2.25;;
58366;SDS011;57745;42.524;12.052;2023-05-21T05:59:27;3.88;;;2.10;;
58366;SDS011;57745;42.524;12.052;2023-05-21T06:01:53;5.57;;;2.90;;
58366;SDS011;57745;42.524;12.052;2023-05-21T06:04:18;3.17;;;2.13;;
58366;SDS011;57745;42.524;12.052;2023-05-21T06:06:44;6.20;;;2.30;;
58366;SDS011;57745;42.524;12.052;2023-05-21T06:09:10;3.70;;;2.10;;
58366;SDS011;57745;42.524;12.052;2023-05-21T06:11:35;4.50;;;2.50;;
58366;SDS011;57745;42.524;12.052;2023-05-21T06:14:01;4.78;;;2.47;;
58366;SDS011;57745;42.524;12.052;2023-05-21T06:16:27;8.00;;;2.50;;
58366;SDS011;57745;42.524;12.052;2023-05-21T06:18:55;3.35;;;2.30;;
58366;SDS011;57745;42.524;12.052;2023-05-21T06:21:21;4.47;;;2.53;;
58366;SDS011;57745;42.524;12.052;2023-05-21T06:23:46;3.95;;;2.13;;
58366;SDS011;57745;42.524;12.052;2023-05-21T06:26:12;3.70;;;2.10;;
58366;SDS011;57745;42.524;12.052;2023-05-21T06:28:37;4.60;;;3.03;;
58366;SDS011;57745;42.524;12.052;2023-05-21T06:31:03;3.17;;;2.03;;
58366;SDS011;57745;42.524;12.052;2023-05-21T06:33:28;4.38;;;2.00;;
58366;SDS011;57745;42.524;12.052;2023-05-21T06:35:54;3.15;;;2.50;;
58366;SDS011;57745;42.524;12.052;2023-05-21T06:38:19;2.90;;;2.13;;
58366;SDS011;57745;42.524;12.052;2023-05-21T06:40:45;3.67;;;2.08;;
58366;SDS011;57745;42.524;12.052;2023-05-21T06:43:12;3.33;;;2.22;;
58366;SDS011;57745;42.524;12.052;2023-05-21T06:45:37;6.18;;;2.28;;
58366;SDS011;57745;42.524;12.052;2023-05-21T06:48:03;3.08;;;2.10;;
58366;SDS011;57745;42.524;12.052;2023-05-21T06:50:29;4.88;;;2.55;;
58366;SDS011;57745;42.524;12.052;2023-05-21T06:52:54;4.40;;;2.35;;
58366;SDS011;57745;42.524;12.052;2023-05-21T06:55:20;4.38;;;2.20;;
58366;SDS011;57745;42.524;12.052;2023-05-21T06:57:45;4.38;;;2.30;;
58366;SDS011;57745;42.524;12.052;2023-05-21T07:00:11;4.38;;;2.45;;
58366;SDS011;57745;42.524;12.052;2023-05-21T07:02:36;4.55;;;3.00;;
58366;SDS011;57745;42.524;12.052;2023-05-21T07:05:02;4.82;;;2.30;;
58366;SDS011;57745;42.524;12.052;2023-05-21T07:07:27;2.92;;;2.30;;
58366;SDS011;57745;42.524;12.052;2023-05-21T07:09:53;4.95;;;3.17;;
58366;SDS011;57745;42.524;12.052;2023-05-21T07:12:18;6.25;;;2.92;;
58366;SDS011;57745;42.524;12.052;2023-05-21T07:14:44;5.18;;;2.80;;
58366;SDS011;57745;42.524;12.052;2023-05-21T07:17:09;6.85;;;3.10;;
58366;SDS011;57745;42.524;12.052;2023-05-21T07:19:34;4.80;;;2.92;;
58366;SDS011;57745;42.524;12.052;2023-05-21T07:22:02;4.53;;;2.72;;
58366;SDS011;57745;42.524;12.052;2023-05-21T07:24:27;5.28;;;2.42;;
58366;SDS011;57745;42.524;12.052;2023-05-21T07:26:53;4.40;;;2.53;;
58366;SDS011;57745;42.524;12.052;2023-05-21T07:29:18;5.15;;;2.70;;
58366;SDS011;57745;42.524;12.052;2023-05-21T07:31:44;5.68;;;2.50;;
58366;SDS011;57745;42.524;12.052;2023-05-21T07:34:09;4.97;;;2.88;;
58366;SDS011;57745;42.524;12.052;2023-05-21T07:36:35;3.75;;;2.63;;
58366;SDS011;57745;42.524;12.052;2023-05-21T07:39:00;5.00;;;2.97;;
58366;SDS011;57745;42.524;12.052;2023-05-21T07:41:26;7.60;;;2.90;;
58366;SDS011;57745;42.524;12.052;2023-05-21T07:43:52;4.35;;;3.00;;
58366;SDS011;57745;42.524;12.052;2023-05-21T07:46:17;6.50;;;3.30;;
58366;SDS011;57745;42.524;12.052;2023-05-21T07:48:42;4.97;;;2.83;;
58366;SDS011;57745;42.524;12.052;2023-05-21T07:51:08;5.35;;;2.58;;
58366;SDS011;57745;42.524;12.052;2023-05-21T07:53:34;4.93;;;2.80;;
58366;SDS011;57745;42.524;12.052;2023-05-21T07:56:00;7.03;;;2.45;;
58366;SDS011;57745;42.524;12.052;2023-05-21T07:58:25;5.88;;;2.97;;
58366;SDS011;57745;42.524;12.052;2023-05-21T08:00:51;6.13;;;3.03;;
58366;SDS011;57745;42.524;12.052;2023-05-21T08:03:16;3.75;;;2.50;;
58366;SDS011;57745;42.524;12.052;2023-05-21T08:05:47;5.55;;;2.80;;
58366;SDS011;57745;42.524;12.052;2023-05-21T08:08:16;5.60;;;2.90;;
58366;SDS011;57745;42.524;12.052;2023-05-21T08:10:43;4.10;;;2.70;;
58366;SDS011;57745;42.524;12.052;2023-05-21T08:13:10;4.75;;;2.47;;
58366;SDS011;57745;42.524;12.052;2023-05-21T08:15:35;7.43;;;3.08;;
58366;SDS011;57745;42.524;12.052;2023-05-21T08:18:01;4.82;;;3.10;;
58366;SDS011;57745;42.524;12.052;2023-05-21T08:20:26;4.50;;;2.30;;
58366;SDS011;57745;42.524;12.052;2023-05-21T08:22:53;4.38;;;2.50;;
58366;SDS011;57745;42.524;12.052;2023-05-21T08:25:18;4.60;;;2.85;;
58366;SDS011;57745;42.524;12.052;2023-05-21T08:27:44;4.10;;;3.00;;
58366;SDS011;57745;42.524;12.052;2023-05-21T08:30:09;4.53;;;3.10;;
58366;SDS011;57745;42.524;12.052;2023-05-21T08:32:35;3.70;;;2.75;;
58366;SDS011;57745;42.524;12.052;2023-05-21T08:35:01;3.78;;;2.72;;
58366;SDS011;57745;42.524;12.052;2023-05-21T08:37:27;4.43;;;2.60;;
58366;SDS011;57745;42.524;12.052;2023-05-21T08:39:53;3.63;;;2.30;;
58366;SDS011;57745;42.524;12.052;2023-05-21T08:44:50;4.35;;;2.80;;
58366;SDS011;57745;42.524;12.052;2023-05-21T08:47:18;4.88;;;2.88;;
58366;SDS011;57745;42.524;12.052;2023-05-21T08:49:50;7.15;;;2.60;;
58366;SDS011;57745;42.524;12.052;2023-05-21T08:52:16;4.63;;;2.80;;
58366;SDS011;57745;42.524;12.052;2023-05-21T08:54:42;5.82;;;2.75;;
58366;SDS011;57745;42.524;12.052;2023-05-21T08:57:09;6.40;;;2.63;;
58366;SDS011;57745;42.524;12.052;2023-05-21T08:59:35;4.75;;;2.50;;
58366;SDS011;57745;42.524;12.052;2023-05-21T09:02:03;7.88;;;3.05;;
58366;SDS011;57745;42.524;12.052;2023-05-21T09:04:29;4.03;;;2.83;;
58366;SDS011;57745;42.524;12.052;2023-05-21T09:06:56;4.25;;;2.72;;
58366;SDS011;57745;42.524;12.052;2023-05-21T09:09:33;7.80;;;3.85;;
58366;SDS011;57745;42.524;12.052;2023-05-21T09:12:21;4.25;;;2.90;;
58366;SDS011;57745;42.524;12.052;2023-05-21T09:14:48;4.20;;;2.80;;
58366;SDS011;57745;42.524;12.052;2023-05-21T09:17:14;6.70;;;3.33;;
58366;SDS011;57745;42.524;12.052;2023-05-21T09:20:03;5.30;;;2.85;;
58366;SDS011;57745;42.524;12.052;2023-05-21T09:22:39;6.30;;;3.33;;
58366;SDS011;57745;42.524;12.052;2023-05-21T09:25:06;6.20;;;3.00;;
58366;SDS011;57745;42.524;12.052;2023-05-21T09:27:33;6.50;;;3.10;;
58366;SDS011;57745;42.524;12.052;2023-05-21T09:29:59;4.57;;;2.83;;
58366;SDS011;57745;42.524;12.052;2023-05-21T09:32:25;3.85;;;2.90;;
58366;SDS011;57745;42.524;12.052;2023-05-21T09:34:51;7.75;;;3.25;;
58366;SDS011;57745;42.524;12.052;2023-05-21T09:37:16;7.40;;;3.03;;
58366;SDS011;57745;42.524;12.052;2023-05-21T09:39:42;4.43;;;3.00;;
58366;SDS011;57745;42.524;12.052;2023-05-21T09:42:08;5.75;;;3.13;;
58366;SDS011;57745;42.524;12.052;2023-05-21T09:44:33;8.05;;;3.40;;
58366;SDS011;57745;42.524;12.052;2023-05-21T09:46:59;9.95;;;4.53;;
58366;SDS011;57745;42.524;12.052;2023-05-21T09:49:26;20.35;;;11.63;;
58366;SDS011;57745;42.524;12.052;2023-05-21T09:51:57;7.65;;;5.13;;
58366;SDS011;57745;42.524;12.052;2023-05-21T09:54:24;6.85;;;4.18;;
58366;SDS011;57745;42.524;12.052;2023-05-21T09:56:50;4.90;;;3.30;;
58366;SDS011;57745;42.524;12.052;2023-05-21T09:59:19;9.18;;;3.20;;
58366;SDS011;57745;42.524;12.052;2023-05-21T10:01:45;5.05;;;2.85;;
58366;SDS011;57745;42.524;12.052;2023-05-21T10:04:10;6.63;;;3.17;;
58366;SDS011;57745;42.524;12.052;2023-05-21T10:06:38;5.95;;;3.33;;
58366;SDS011;57745;42.524;12.052;2023-05-21T10:09:11;6.25;;;3.10;;
58366;SDS011;57745;42.524;12.052;2023-05-21T10:11:40;4.93;;;3.17;;
58366;SDS011;57745;42.524;12.052;2023-05-21T10:14:09;8.45;;;3.60;;
58366;SDS011;57745;42.524;12.052;2023-05-21T10:16:40;6.72;;;3.22;;
58366;SDS011;57745;42.524;12.052;2023-05-21T10:19:06;7.43;;;3.30;;
58366;SDS011;57745;42.524;12.052;2023-05-21T10:21:35;6.55;;;3.13;;
58366;SDS011;57745;42.524;12.052;2023-05-21T10:24:01;7.22;;;4.03;;
58366;SDS011;57745;42.524;12.052;2023-05-21T10:26:28;7.70;;;4.30;;
58366;SDS011;57745;42.524;12.052;2023-05-21T10:28:55;7.18;;;5.00;;
58366;SDS011;57745;42.524;12.052;2023-05-21T10:31:21;8.02;;;4.50;;
58366;SDS011;57745;42.524;12.052;2023-05-21T10:33:47;8.35;;;3.65;;
58366;SDS011;57745;42.524;12.052;2023-05-21T10:36:15;7.30;;;3.20;;
58366;SDS011;57745;42.524;12.052;2023-05-21T10:38:42;5.60;;;2.90;;
58366;SDS011;57745;42.524;12.052;2023-05-21T10:41:08;4.60;;;3.25;;
58366;SDS011;57745;42.524;12.052;2023-05-21T10:43:39;5.32;;;3.63;;
58366;SDS011;57745;42.524;12.052;2023-05-21T10:51:28;6.75;;;3.45;;
58366;SDS011;57745;42.524;12.052;2023-05-21T10:56:56;6.40;;;3.67;;
58366;SDS011;57745;42.524;12.052;2023-05-21T11:02:16;7.40;;;3.80;;
58366;SDS011;57745;42.524;12.052;2023-05-21T11:04:44;8.02;;;3.50;;
58366;SDS011;57745;42.524;12.052;2023-05-21T11:07:13;5.35;;;3.55;;
58366;SDS011;57745;42.524;12.052;2023-05-21T11:09:39;6.45;;;3.65;;
58366;SDS011;57745;42.524;12.052;2023-05-21T11:12:05;8.13;;;4.30;;
58366;SDS011;57745;42.524;12.052;2023-05-21T11:14:41;7.82;;;3.33;;
58366;SDS011;57745;42.524;12.052;2023-05-21T11:17:37;5.18;;;3.55;;
58366;SDS011;57745;42.524;12.052;2023-05-21T11:20:07;6.78;;;3.17;;
58366;SDS011;57745;42.524;12.052;2023-05-21T11:22:38;6.28;;;3.40;;
58366;SDS011;57745;42.524;12.052;2023-05-21T11:25:03;5.97;;;3.47;;
58366;SDS011;57745;42.524;12.052;2023-05-21T11:27:34;8.18;;;4.00;;
58366;SDS011;57745;42.524;12.052;2023-05-21T11:32:37;7.90;;;3.70;;
58366;SDS011;57745;42.524;12.052;2023-05-21T11:35:28;7.30;;;3.60;;
58366;SDS011;57745;42.524;12.052;2023-05-21T11:37:53;5.57;;;3.65;;
58366;SDS011;57745;42.524;12.052;2023-05-21T11:40:19;6.10;;;4.07;;
58366;SDS011;57745;42.524;12.052;2023-05-21T11:42:50;10.07;;;6.35;;
58366;SDS011;57745;42.524;12.052;2023-05-21T11:45:17;10.82;;;3.97;;
58366;SDS011;57745;42.524;12.052;2023-05-21T11:47:44;6.18;;;3.55;;
58366;SDS011;57745;42.524;12.052;2023-05-21T11:50:12;5.80;;;3.58;;
58366;SDS011;57745;42.524;12.052;2023-05-21T11:52:38;6.30;;;4.18;;
58366;SDS011;57745;42.524;12.052;2023-05-21T11:55:05;7.88;;;4.10;;
58366;SDS011;57745;42.524;12.052;2023-05-21T11:57:31;7.45;;;4.45;;
58366;SDS011;57745;42.524;12.052;2023-05-21T11:59:57;7.95;;;3.88;;
58366;SDS011;57745;42.524;12.052;2023-05-21T12:02:25;6.45;;;3.85;;
58366;SDS011;57745;42.524;12.052;2023-05-21T12:04:54;6.75;;;4.10;;
58366;SDS011;57745;42.524;12.052;2023-05-21T12:07:25;7.85;;;4.13;;
58366;SDS011;57745;42.524;12.052;2023-05-21T12:09:52;7.50;;;4.30;;
58366;SDS011;57745;42.524;12.052;2023-05-21T12:12:19;9.20;;;4.28;;
58366;SDS011;57745;42.524;12.052;2023-05-21T12:14:47;7.93;;;4.82;;
58366;SDS011;57745;42.524;12.052;2023-05-21T12:17:20;6.55;;;4.63;;
58366;SDS011;57745;42.524;12.052;2023-05-21T12:19:47;9.65;;;5.15;;
58366;SDS011;57745;42.524;12.052;2023-05-21T12:22:14;6.65;;;5.15;;
58366;SDS011;57745;42.524;12.052;2023-05-21T12:24:40;8.60;;;4.97;;
58366;SDS011;57745;42.524;12.052;2023-05-21T12:27:09;7.53;;;5.30;;
58366;SDS011;57745;42.524;12.052;2023-05-21T12:29:37;10.95;;;5.20;;
58366;SDS011;57745;42.524;12.052;2023-05-21T12:32:05;8.50;;;5.35;;
58366;SDS011;57745;42.524;12.052;2023-05-21T12:34:42;7.70;;;4.75;;
58366;SDS011;57745;42.524;12.052;2023-05-21T12:37:19;7.07;;;5.30;;
58366;SDS011;57745;42.524;12.052;2023-05-21T12:39:49;11.02;;;5.80;;
58366;SDS011;57745;42.524;12.052;2023-05-21T12:42:21;7.85;;;5.60;;
58366;SDS011;57745;42.524;12.052;2023-05-21T12:44:50;8.30;;;5.35;;
58366;SDS011;57745;42.524;12.052;2023-05-21T12:47:16;7.68;;;5.75;;
58366;SDS011;57745;42.524;12.052;2023-05-21T12:49:42;10.05;;;6.22;;
58366;SDS011;57745;42.524;12.052;2023-05-21T12:52:10;8.38;;;5.97;;
58366;SDS011;57745;42.524;12.052;2023-05-21T12:54:37;9.23;;;5.70;;
58366;SDS011;57745;42.524;12.052;2023-05-21T12:57:17;10.20;;;5.90;;
58366;SDS011;57745;42.524;12.052;2023-05-21T12:59:50;11.80;;;5.70;;
58366;SDS011;57745;42.524;12.052;2023-05-21T13:02:23;13.88;;;6.38;;
58366;SDS011;57745;42.524;12.052;2023-05-21T13:04:54;9.73;;;6.60;;
58366;SDS011;57745;42.524;12.052;2023-05-21T13:07:21;8.88;;;6.53;;
58366;SDS011;57745;42.524;12.052;2023-05-21T13:09:47;9.90;;;6.53;;
58366;SDS011;57745;42.524;12.052;2023-05-21T13:12:14;11.40;;;6.00;;
58366;SDS011;57745;42.524;12.052;2023-05-21T13:14:39;11.63;;;6.68;;
58366;SDS011;57745;42.524;12.052;2023-05-21T13:17:05;13.55;;;7.18;;
58366;SDS011;57745;42.524;12.052;2023-05-21T13:19:30;9.60;;;6.63;;
58366;SDS011;57745;42.524;12.052;2023-05-21T13:21:56;12.55;;;7.05;;
58366;SDS011;57745;42.524;12.052;2023-05-21T13:24:21;9.63;;;6.43;;
58366;SDS011;57745;42.524;12.052;2023-05-21T13:26:46;9.68;;;6.78;;
58366;SDS011;57745;42.524;12.052;2023-05-21T13:29:12;9.90;;;6.70;;
58366;SDS011;57745;42.524;12.052;2023-05-21T13:31:41;8.30;;;6.60;;
58366;SDS011;57745;42.524;12.052;2023-05-21T13:34:08;10.13;;;6.18;;
58366;SDS011;57745;42.524;12.052;2023-05-21T13:36:35;8.77;;;6.00;;
58366;SDS011;57745;42.524;12.052;2023-05-21T13:39:01;9.65;;;6.10;;
58366;SDS011;57745;42.524;12.052;2023-05-21T13:41:26;11.38;;;5.57;;
58366;SDS011;57745;42.524;12.052;2023-05-21T13:43:52;8.50;;;5.43;;
58366;SDS011;57745;42.524;12.052;2023-05-21T13:46:17;7.80;;;5.90;;
58366;SDS011;57745;42.524;12.052;2023-05-21T13:48:43;6.25;;;4.93;;
58366;SDS011;57745;42.524;12.052;2023-05-21T13:51:08;8.15;;;4.63;;
58366;SDS011;57745;42.524;12.052;2023-05-21T13:53:33;6.72;;;4.78;;
58366;SDS011;57745;42.524;12.052;2023-05-21T13:55:59;6.63;;;4.60;;
58366;SDS011;57745;42.524;12.052;2023-05-21T13:58:24;11.40;;;5.13;;
58366;SDS011;57745;42.524;12.052;2023-05-21T14:00:52;7.50;;;4.82;;
58366;SDS011;57745;42.524;12.052;2023-05-21T14:03:18;5.93;;;4.35;;
58366;SDS011;57745;42.524;12.052;2023-05-21T14:05:44;9.68;;;5.07;;
58366;SDS011;57745;42.524;12.052;2023-05-21T14:08:10;8.25;;;5.57;;
58366;SDS011;57745;42.524;12.052;2023-05-21T14:10:38;7.35;;;5.72;;
58366;SDS011;57745;42.524;12.052;2023-05-21T14:13:04;7.78;;;5.30;;
58366;SDS011;57745;42.524;12.052;2023-05-21T14:15:30;10.02;;;5.70;;
58366;SDS011;57745;42.524;12.052;2023-05-21T14:17:56;7.60;;;5.90;;
58366;SDS011;57745;42.524;12.052;2023-05-21T14:20:21;10.40;;;6.28;;
58366;SDS011;57745;42.524;12.052;2023-05-21T14:22:47;9.32;;;5.93;;
58366;SDS011;57745;42.524;12.052;2023-05-21T14:25:12;9.13;;;6.43;;
58366;SDS011;57745;42.524;12.052;2023-05-21T14:27:37;8.77;;;6.32;;
58366;SDS011;57745;42.524;12.052;2023-05-21T14:30:03;7.90;;;5.72;;
58366;SDS011;57745;42.524;12.052;2023-05-21T14:32:29;8.98;;;5.47;;
58366;SDS011;57745;42.524;12.052;2023-05-21T14:34:55;10.43;;;5.82;;
58366;SDS011;57745;42.524;12.052;2023-05-21T14:37:21;9.18;;;6.18;;
58366;SDS011;57745;42.524;12.052;2023-05-21T14:39:46;11.77;;;5.60;;
58366;SDS011;57745;42.524;12.052;2023-05-21T14:42:12;11.40;;;5.85;;
58366;SDS011;57745;42.524;12.052;2023-05-21T14:44:37;10.32;;;6.28;;
58366;SDS011;57745;42.524;12.052;2023-05-21T14:47:02;9.05;;;5.75;;
58366;SDS011;57745;42.524;12.052;2023-05-21T14:49:28;9.90;;;6.60;;
58366;SDS011;57745;42.524;12.052;2023-05-21T14:51:54;9.98;;;5.15;;